createdAt,value
2023-01-29T00:04:33.785Z,0.02
2023-01-29T00:09:35.966Z,-0.08
2023-01-29T00:14:38.175Z,-0.09
2023-01-29T00:19:39.306Z,-0.08
2023-01-29T00:24:40.744Z,-0.07
2023-01-29T00:29:42.279Z,-0.12
2023-01-29T00:34:43.940Z,-0.18
2023-01-29T00:39:48.012Z,-0.15
2023-01-29T00:44:47.521Z,-0.13
2023-01-29T00:49:49.448Z,-0.11
2023-01-29T00:54:51.227Z,-0.12
2023-01-29T00:59:52.665Z,-0.09
2023-01-29T01:04:54.603Z,-0.08
2023-01-29T01:09:56.216Z,-0.08
2023-01-29T01:14:57.330Z,-0.08
2023-01-29T01:19:59.407Z,-0.07
2023-01-29T01:25:01.437Z,-0.03
2023-01-29T01:30:02.707Z,-0.01
2023-01-29T01:35:03.901Z,-0.02
2023-01-29T01:40:05.347Z,-0.01
2023-01-29T01:45:07.310Z,0.02
2023-01-29T01:50:08.688Z,0.04
2023-01-29T02:25:21.760Z,-0.12
2023-01-29T02:30:23.694Z,-0.11
2023-01-29T02:35:25.146Z,-0.12
2023-01-29T02:45:29.189Z,-0.1
2023-01-29T02:55:32.630Z,-0.04
2023-01-29T03:00:34.143Z,-0.04
2023-01-29T03:05:35.722Z,-0.04
2023-01-29T03:10:37.153Z,-0.01
2023-01-29T03:15:39.108Z,0.02
2023-01-29T03:20:40.639Z,0.02
2023-01-29T03:25:42.707Z,0.01
2023-01-29T03:30:44.177Z,0.03
2023-01-29T03:35:46.376Z,0.04
2023-01-29T03:40:47.916Z,0.04
2023-01-29T03:45:49.695Z,0.07
2023-01-29T03:50:50.783Z,0.06
2023-01-29T03:55:52.473Z,0.09
2023-01-29T04:00:54.240Z,0.07
2023-01-29T04:06:02.478Z,0.06
2023-01-29T04:11:04.473Z,0.06
2023-01-29T04:16:06.195Z,0.06
2023-01-29T04:21:07.698Z,0.08
2023-01-29T04:26:09.066Z,0.08
2023-01-29T04:31:10.717Z,0.07
2023-01-29T04:36:12.492Z,0.08
2023-01-29T04:41:14.092Z,0.13
2023-01-29T04:46:15.988Z,0.15
2023-01-29T04:51:18.184Z,0.16
2023-01-29T04:56:19.613Z,0.16
2023-01-29T05:01:21.288Z,0.16
2023-01-29T05:06:22.482Z,0.17
2023-01-29T05:11:23.851Z,0.15
2023-01-29T05:16:25.864Z,0.13
2023-01-29T05:21:27.729Z,0.14
2023-01-29T05:26:29.452Z,0.16
2023-01-29T05:31:30.740Z,0.14
2023-01-29T05:36:32.793Z,0.07
2023-01-29T05:41:34.245Z,0.04
2023-01-29T05:46:36.413Z,0.04
2023-01-29T05:51:38.330Z,0.02
2023-01-29T05:56:39.523Z,0
2023-01-29T06:01:41.032Z,-0.03
2023-01-29T06:06:42.972Z,-0.01
2023-01-29T06:11:44.410Z,0.01
2023-01-29T06:16:46.431Z,0.03
2023-01-29T06:21:47.738Z,0.03
2023-01-29T06:26:49.641Z,0.03
2023-01-29T06:31:51.715Z,0.02
2023-01-29T06:36:52.789Z,-0.01
2023-01-29T06:41:54.862Z,-0.03
2023-01-29T06:46:56.639Z,-0.03
2023-01-29T06:51:58.044Z,-0.02
2023-01-29T06:56:59.346Z,-0.01
2023-01-29T07:02:00.590Z,-0.03
2023-01-29T07:07:01.858Z,-0.06
2023-01-29T07:12:03.512Z,-0.07
2023-01-29T07:17:05.461Z,-0.04
2023-01-29T07:22:06.708Z,-0.03
2023-01-29T07:27:08.345Z,-0.03
2023-01-29T07:32:10.043Z,-0.02
2023-01-29T07:37:11.165Z,0.02
2023-01-29T07:42:12.648Z,-0.01
2023-01-29T07:47:15.197Z,-0.01
2023-01-29T07:52:15.889Z,0.01
2023-01-29T07:57:17.088Z,0.05
2023-01-29T08:02:18.537Z,0.09
2023-01-29T08:07:20.440Z,0.12
2023-01-29T08:12:21.787Z,0.14
2023-01-29T08:17:23.242Z,0.2
2023-01-29T08:22:24.960Z,0.28
2023-01-29T08:27:27.024Z,0.31
2023-01-29T08:32:28.255Z,0.35
2023-01-29T08:37:29.589Z,0.39
2023-01-29T08:42:30.894Z,0.47
2023-01-29T08:47:32.479Z,0.52
2023-01-29T08:52:33.978Z,0.52
2023-01-29T08:57:35.607Z,0.55
2023-01-29T09:02:36.862Z,0.6
2023-01-29T09:07:38.854Z,0.67
2023-01-29T09:12:40.374Z,0.61
2023-01-29T09:17:42.275Z,0.58
2023-01-29T09:22:43.583Z,0.62
2023-01-29T09:27:45.035Z,0.65
2023-01-29T09:32:54.550Z,0.65
2023-01-29T09:37:48.460Z,0.65
2023-01-29T09:42:49.867Z,0.68
2023-01-29T09:47:51.359Z,0.74
2023-01-29T09:52:52.905Z,0.8
2023-01-29T09:57:55.009Z,0.65
2023-01-29T10:02:57.073Z,0.67
2023-01-29T10:07:58.831Z,0.74
2023-01-29T10:13:00.580Z,0.8
2023-01-29T10:18:02.124Z,0.85
2023-01-29T10:23:03.874Z,0.88
2023-01-29T10:28:05.042Z,0.93
2023-01-29T10:33:06.925Z,1.02
2023-01-29T10:38:08.359Z,1.05
2023-01-29T10:43:09.676Z,1.04
2023-01-29T10:48:11.538Z,1.08
2023-01-29T10:53:13.352Z,1.13
2023-01-29T10:58:14.344Z,1.21
2023-01-29T11:03:26.731Z,1.22
2023-01-29T11:08:17.751Z,1.25
2023-01-29T11:13:18.841Z,1.16
2023-01-29T11:18:20.769Z,1.17
2023-01-29T11:23:22.179Z,1.23
2023-01-29T11:28:24.279Z,1.23
2023-01-29T11:33:26.031Z,1.29
2023-01-29T11:38:27.113Z,1.36
2023-01-29T11:43:28.719Z,1.45
2023-01-29T11:48:30.865Z,1.34
2023-01-29T11:53:32.371Z,1.01
2023-01-29T11:58:33.647Z,0.97
2023-01-29T12:03:35.213Z,1.09
2023-01-29T12:08:37.373Z,1.23
2023-01-29T12:13:38.820Z,1.31
2023-01-29T12:18:40.917Z,1.46
2023-01-29T12:23:42.176Z,1.6
2023-01-29T12:28:44.155Z,1.71
2023-01-29T12:33:45.500Z,1.7
2023-01-29T12:38:47.556Z,1.71
2023-01-29T12:43:49.345Z,1.73
2023-01-29T12:48:51.513Z,1.73
2023-01-29T12:53:53.071Z,1.7
2023-01-29T12:58:54.559Z,1.69
2023-01-29T13:03:56.352Z,1.69
2023-01-29T13:08:57.927Z,1.75
2023-01-29T13:13:59.204Z,1.72
2023-01-29T13:19:01.303Z,1.73
2023-01-29T13:24:03.026Z,1.67
2023-01-29T13:29:04.723Z,1.7
2023-01-29T13:34:06.212Z,1.69
2023-01-29T13:39:07.553Z,1.68
2023-01-29T13:44:09.170Z,1.67
2023-01-29T13:49:11.420Z,1.73
2023-01-29T13:54:12.886Z,1.8
2023-01-29T13:59:14.253Z,1.79
2023-01-29T14:04:16.183Z,1.76
2023-01-29T14:09:17.765Z,1.77
2023-01-29T14:14:19.350Z,1.81
2023-01-29T14:19:20.934Z,1.79
2023-01-29T14:24:22.625Z,1.71
2023-01-29T14:29:33.695Z,1.65
2023-01-29T14:34:25.936Z,1.56
2023-01-29T14:39:27.313Z,1.51
2023-01-29T14:44:28.606Z,1.45
2023-01-29T14:49:30.687Z,1.37
2023-01-29T14:54:32.280Z,1.36
2023-01-29T14:59:34.232Z,1.35
2023-01-29T15:04:35.755Z,1.3
2023-01-29T15:09:39.584Z,1.26
2023-01-29T15:14:39.528Z,1.19
2023-01-29T15:19:41.559Z,1.16
2023-01-29T15:24:43.176Z,1.1
2023-01-29T15:29:44.641Z,0.99
2023-01-29T15:34:46.284Z,0.93
2023-01-29T15:39:47.588Z,0.89
2023-01-29T15:44:49.017Z,0.92
2023-01-29T15:49:50.384Z,0.85
2023-01-29T15:54:52.939Z,0.77
2023-01-29T15:59:53.829Z,0.73
2023-01-29T16:04:55.804Z,0.7
2023-01-29T16:09:57.248Z,0.68
2023-01-29T16:14:58.454Z,0.62
2023-01-29T16:20:00.142Z,0.57
2023-01-29T16:25:02.050Z,0.52
2023-01-29T16:30:04.054Z,0.52
2023-01-29T16:35:05.019Z,0.49
2023-01-29T16:40:07.182Z,0.39
2023-01-29T17:15:18.727Z,0.49
2023-01-29T17:30:23.599Z,0.47
2023-01-29T17:35:25.105Z,0.5
2023-01-29T17:40:26.540Z,0.52
2023-01-29T17:50:29.352Z,0.46
2023-01-29T18:10:36.669Z,0.43
2023-01-29T18:15:38.739Z,0.43
2023-01-29T18:20:40.010Z,0.44
2023-01-29T18:25:41.307Z,0.44
2023-01-29T18:30:43.290Z,0.39
2023-01-29T18:35:45.243Z,0.38
2023-01-29T18:40:47.082Z,0.42
2023-01-29T18:45:49.001Z,0.49
2023-01-29T18:50:50.187Z,0.48
2023-01-29T18:55:51.777Z,0.43
2023-01-29T19:00:53.950Z,0.44
2023-01-29T19:05:55.562Z,0.51
2023-01-29T19:10:57.473Z,0.49
2023-01-29T19:15:58.740Z,0.42
2023-01-29T19:21:00.632Z,0.36
2023-01-29T19:26:02.646Z,0.34
2023-01-29T19:31:04.865Z,0.35
2023-01-29T19:36:06.517Z,0.28
2023-01-29T19:41:08.010Z,0.2
2023-01-29T19:46:09.592Z,0.19
2023-01-29T19:51:10.927Z,0.18
2023-01-29T19:56:12.162Z,0.15
2023-01-29T20:01:13.744Z,0.07
2023-01-29T20:06:15.088Z,0.01
2023-01-29T20:11:17.199Z,0.05
2023-01-29T20:16:19.276Z,0.05
2023-01-29T20:21:21.030Z,-0.06
2023-01-29T20:26:23.086Z,-0.14
2023-01-29T20:31:24.923Z,-0.18
2023-01-29T20:36:26.577Z,-0.16
2023-01-29T20:41:28.034Z,-0.24
2023-01-29T20:46:29.580Z,-0.37
2023-01-29T20:51:37.955Z,-0.4
2023-01-29T20:56:42.496Z,-0.42
2023-01-29T21:01:42.024Z,-0.42
2023-01-29T21:06:43.331Z,-0.51
2023-01-29T21:11:45.214Z,-0.62
2023-01-29T21:16:46.540Z,-0.65
2023-01-29T21:21:47.802Z,-0.66
2023-01-29T21:26:49.838Z,-0.78
2023-01-29T21:31:51.184Z,-0.95
2023-01-29T21:36:53.086Z,-0.96
2023-01-29T21:41:54.856Z,-0.98
2023-01-29T21:46:56.529Z,-1
2023-01-29T21:51:58.397Z,-1.11
2023-01-29T21:56:59.726Z,-1.22
2023-01-29T22:02:01.636Z,-1.24
2023-01-29T22:07:02.900Z,-1.22
2023-01-29T22:12:04.078Z,-1.25
2023-01-29T22:17:06.866Z,-1.32
2023-01-29T22:22:07.986Z,-1.32
2023-01-29T22:27:10.028Z,-1.29
2023-01-29T22:32:12.183Z,-1.24
2023-01-29T22:37:13.895Z,-1.33
2023-01-29T22:42:15.631Z,-1.44
2023-01-29T22:47:17.530Z,-1.44
2023-01-29T22:52:19.000Z,-1.42
2023-01-29T22:57:20.362Z,-1.46
2023-01-29T23:02:21.822Z,-1.59
2023-01-29T23:07:23.365Z,-1.69
2023-01-29T23:12:25.571Z,-1.69
2023-01-29T23:17:27.151Z,-1.69
2023-01-29T23:22:29.012Z,-1.76
2023-01-29T23:27:30.776Z,-1.89
2023-01-29T23:32:32.475Z,-1.91
2023-01-29T23:37:33.876Z,-1.92
2023-01-29T23:42:35.521Z,-1.94
2023-01-29T23:47:36.998Z,-2.04
2023-01-29T23:52:38.611Z,-2.1
2023-01-29T23:57:39.972Z,-2.08
